Weather at Glasgow International Airport

Public forecast

Using degrees Celsius for public forecast. Weather courtesy of forecast.io.

Current aviation weather report (METAR) for Glasgow International Airport

Retrieved 2022/08/10 07:20 UTC (14 minutes ago):

EGPF 100720Z AUTO VRB02KT 9999 NCD 16/14 Q1026

Aviation forecast (TAF) for Glasgow International Airport

Retrieved 2022/08/10 06:00 UTC (2 hours ago):

TAF EGPF 100458Z 1006/1106 24005KT 9999 FEW040 PROB30 1006/1007 6000 PROB30 1103/1106 0300 FG VV///